createdAt,value
2018-03-11T00:01:27.693Z,994.74
2018-03-11T00:02:27.648Z,994.76
2018-03-11T00:04:20.646Z,994.82
2018-03-11T00:05:20.615Z,994.81
2018-03-11T00:07:14.002Z,994.81
2018-03-11T00:08:14.560Z,994.85
2018-03-11T00:10:07.400Z,994.83
2018-03-11T00:11:07.339Z,994.86
2018-03-11T00:13:00.752Z,994.83
2018-03-11T00:14:00.721Z,994.82
2018-03-11T00:15:53.592Z,994.78
2018-03-11T00:16:53.586Z,994.75
2018-03-11T00:18:46.948Z,994.74
2018-03-11T00:19:46.913Z,994.77
2018-03-11T00:21:40.307Z,994.80
2018-03-11T00:22:40.274Z,994.78
2018-03-11T00:24:33.169Z,994.77
2018-03-11T00:25:33.156Z,994.75
2018-03-11T00:27:26.641Z,994.74
2018-03-11T00:28:26.029Z,994.76
2018-03-11T00:30:19.522Z,994.74
2018-03-11T00:31:19.385Z,994.69
2018-03-11T00:33:12.283Z,994.62
2018-03-11T00:34:12.306Z,994.63
2018-03-11T00:36:05.628Z,994.58
2018-03-11T00:37:05.600Z,994.55
2018-03-11T00:38:58.498Z,994.47
2018-03-11T00:39:58.486Z,994.51
2018-03-11T00:41:53.031Z,994.48
2018-03-11T00:42:52.834Z,994.46
2018-03-11T00:44:46.313Z,994.43
2018-03-11T00:45:46.197Z,994.40
2018-03-11T00:47:39.607Z,994.38
2018-03-11T00:48:39.551Z,994.39
2018-03-11T00:50:32.510Z,994.39
2018-03-11T00:51:32.411Z,994.37
2018-03-11T00:53:25.966Z,994.36
2018-03-11T00:54:25.276Z,994.38
2018-03-11T00:56:18.756Z,994.36
2018-03-11T00:57:18.145Z,994.31
2018-03-11T00:59:14.160Z,994.25
2018-03-11T01:00:11.515Z,994.25
2018-03-11T01:02:04.517Z,994.22
2018-03-11T01:03:04.364Z,994.16
2018-03-11T01:04:57.430Z,994.15
2018-03-11T01:05:57.232Z,994.10
2018-03-11T01:07:50.673Z,994.04
2018-03-11T01:08:50.584Z,994.04
2018-03-11T01:10:44.555Z,994.04
2018-03-11T01:11:43.988Z,994.04
2018-03-11T01:13:36.893Z,994.01
2018-03-11T01:14:36.855Z,994.03
2018-03-11T01:16:31.307Z,994.03
2018-03-11T01:17:29.723Z,994.01
2018-03-11T01:19:23.179Z,993.97
2018-03-11T01:20:23.089Z,993.98
2018-03-11T01:22:16.496Z,993.88
2018-03-11T01:23:16.442Z,993.86
2018-03-11T01:25:10.545Z,993.88
2018-03-11T01:26:09.869Z,993.82
2018-03-11T01:28:04.266Z,993.77
2018-03-11T01:29:04.180Z,993.78
2018-03-11T01:30:57.069Z,993.76
2018-03-11T01:31:57.073Z,993.75
2018-03-11T01:33:49.987Z,993.70
2018-03-11T01:34:49.911Z,993.69
2018-03-11T01:36:44.850Z,993.59
2018-03-11T01:37:43.853Z,993.60
2018-03-11T01:39:37.652Z,993.59
2018-03-11T01:40:37.620Z,993.54
2018-03-11T01:42:30.577Z,993.47
2018-03-11T01:43:30.533Z,993.50
2018-03-11T01:45:24.493Z,993.44
2018-03-11T01:46:24.458Z,993.43
2018-03-11T01:48:18.057Z,993.41
2018-03-11T01:49:17.838Z,993.38
2018-03-11T01:51:10.707Z,993.36
2018-03-11T01:52:10.700Z,993.35
2018-03-11T01:54:04.152Z,993.32
2018-03-11T01:55:03.544Z,993.32
2018-03-11T01:56:56.541Z,993.28
2018-03-11T01:57:56.412Z,993.23
2018-03-11T01:59:49.805Z,993.15
2018-03-11T02:00:49.788Z,993.14
2018-03-11T02:02:42.688Z,993.10
2018-03-11T02:03:42.643Z,993.07
2018-03-11T02:05:36.025Z,993.04
2018-03-11T02:06:35.998Z,993.02
2018-03-11T02:08:29.379Z,992.97
2018-03-11T02:09:29.358Z,992.95
2018-03-11T02:11:22.285Z,992.93
2018-03-11T02:12:22.226Z,992.86
2018-03-11T02:14:15.110Z,992.81
2018-03-11T02:15:15.086Z,992.84
2018-03-11T02:17:08.014Z,992.81
2018-03-11T02:18:07.966Z,992.81
2018-03-11T02:20:00.821Z,992.76
2018-03-11T02:21:00.803Z,992.72
2018-03-11T02:22:54.249Z,992.67
2018-03-11T02:23:54.156Z,992.68
2018-03-11T02:25:47.536Z,992.61
2018-03-11T02:26:47.514Z,992.62
2018-03-11T02:28:40.981Z,992.53
2018-03-11T02:29:40.876Z,992.43
2018-03-11T02:31:34.275Z,992.39
2018-03-11T02:32:34.230Z,992.39
2018-03-11T02:34:27.122Z,992.44
2018-03-11T02:35:27.101Z,992.49
2018-03-11T02:37:19.995Z,992.56
2018-03-11T02:38:19.989Z,992.54
2018-03-11T02:40:12.874Z,992.56
2018-03-11T02:41:12.826Z,992.57
2018-03-11T02:43:05.742Z,992.52
2018-03-11T02:44:05.702Z,992.52
2018-03-11T02:45:58.599Z,992.60
2018-03-11T02:46:58.607Z,992.61
2018-03-11T02:48:51.932Z,992.55
2018-03-11T02:49:51.904Z,992.58
2018-03-11T02:51:44.796Z,992.52
2018-03-11T02:52:44.765Z,992.46
2018-03-11T02:54:37.680Z,992.46
2018-03-11T02:55:37.639Z,992.44
2018-03-11T02:57:30.531Z,992.38
2018-03-11T02:58:30.517Z,992.38
2018-03-11T03:00:24.100Z,992.27
2018-03-11T03:01:23.858Z,992.21
2018-03-11T03:03:17.267Z,992.09
2018-03-11T03:04:17.218Z,992.11
2018-03-11T03:06:10.236Z,992.06
2018-03-11T03:07:10.069Z,992.05
2018-03-11T03:09:03.039Z,992.04
2018-03-11T03:10:02.940Z,991.94
2018-03-11T03:11:55.842Z,991.87
2018-03-11T03:12:55.796Z,991.85
2018-03-11T03:14:49.241Z,991.86
2018-03-11T03:15:49.169Z,991.82
2018-03-11T03:17:42.071Z,991.77
2018-03-11T03:18:42.048Z,991.77
2018-03-11T03:20:34.944Z,991.82
2018-03-11T03:21:34.898Z,991.82
2018-03-11T03:23:27.849Z,991.79
2018-03-11T03:24:27.799Z,991.77
2018-03-11T03:26:21.244Z,991.68
2018-03-11T03:27:21.122Z,991.67
2018-03-11T03:29:14.089Z,991.63
2018-03-11T03:30:13.981Z,991.58
2018-03-11T03:32:07.426Z,991.61
2018-03-11T03:33:07.339Z,991.63
2018-03-11T03:35:00.240Z,991.63
2018-03-11T03:36:00.190Z,991.60
2018-03-11T03:37:53.155Z,991.59
2018-03-11T03:38:53.067Z,991.60
2018-03-11T03:40:46.544Z,991.59
2018-03-11T03:41:46.404Z,991.59
2018-03-11T03:43:39.485Z,991.46
2018-03-11T03:44:39.285Z,991.40
2018-03-11T03:46:32.824Z,991.33
2018-03-11T03:47:32.638Z,991.29
2018-03-11T03:49:25.519Z,991.21
2018-03-11T03:50:25.517Z,991.20
2018-03-11T03:52:18.896Z,991.22
2018-03-11T03:53:18.855Z,991.19
2018-03-11T03:55:12.800Z,991.15
2018-03-11T03:56:12.203Z,991.18
2018-03-11T03:58:05.188Z,991.18
2018-03-11T03:59:05.076Z,991.16
2018-03-11T04:00:58.446Z,991.08
2018-03-11T04:01:58.423Z,991.05
2018-03-11T04:03:51.883Z,990.98
2018-03-11T04:04:51.785Z,990.90
2018-03-11T04:06:44.728Z,990.89
2018-03-11T04:07:44.669Z,990.87
2018-03-11T04:09:37.656Z,990.90
2018-03-11T04:10:37.547Z,990.87
2018-03-11T04:12:30.917Z,990.81
2018-03-11T04:13:31.439Z,990.81
2018-03-11T04:15:23.873Z,990.90
2018-03-11T04:16:23.734Z,990.99
2018-03-11T04:18:17.105Z,991.18
2018-03-11T04:19:17.078Z,991.21
2018-03-11T04:21:09.984Z,991.12
2018-03-11T04:22:09.963Z,991.03
2018-03-11T04:24:02.929Z,990.98
2018-03-11T04:25:02.814Z,990.97
2018-03-11T04:26:57.423Z,990.86
2018-03-11T04:27:56.174Z,990.88
2018-03-11T04:29:49.057Z,990.85
2018-03-11T04:30:49.042Z,990.81
2018-03-11T04:32:41.996Z,990.76
2018-03-11T04:33:41.903Z,990.76
2018-03-11T04:35:35.289Z,990.80
2018-03-11T04:36:35.250Z,990.75
2018-03-11T04:38:28.155Z,990.74
2018-03-11T04:39:28.112Z,990.75
2018-03-11T04:41:21.502Z,990.71
2018-03-11T04:42:21.468Z,990.65
2018-03-11T04:44:14.357Z,990.65
2018-03-11T04:45:14.326Z,990.65
2018-03-11T04:47:07.267Z,990.61
2018-03-11T04:48:07.192Z,990.59
2018-03-11T04:50:00.088Z,990.63
2018-03-11T04:51:00.056Z,990.61
2018-03-11T04:52:53.441Z,990.59
2018-03-11T04:53:53.416Z,990.59
2018-03-11T04:55:46.307Z,990.55
2018-03-11T04:56:46.287Z,990.54
2018-03-11T04:58:39.183Z,990.47
2018-03-11T04:59:39.163Z,990.49
2018-03-11T05:01:32.563Z,990.40
2018-03-11T05:02:32.504Z,990.38
2018-03-11T05:04:25.394Z,990.39
2018-03-11T05:05:25.369Z,990.39
2018-03-11T05:07:18.311Z,990.31
2018-03-11T05:08:18.231Z,990.29
2018-03-11T05:10:11.611Z,990.27
2018-03-11T05:11:11.613Z,990.26
2018-03-11T05:13:05.043Z,990.28
2018-03-11T05:14:04.945Z,990.29
2018-03-11T05:15:58.332Z,990.24
2018-03-11T05:16:58.302Z,990.22
2018-03-11T05:18:51.190Z,990.17
2018-03-11T05:19:51.166Z,990.17
2018-03-11T05:21:44.120Z,990.18
2018-03-11T05:22:44.025Z,990.11
2018-03-11T05:24:37.419Z,990.06
2018-03-11T05:25:37.396Z,990.07
2018-03-11T05:27:30.278Z,990.03
2018-03-11T05:28:30.287Z,989.96
2018-03-11T05:30:23.147Z,989.95
2018-03-11T05:31:23.116Z,989.95
2018-03-11T05:33:16.494Z,989.87
2018-03-11T05:34:16.468Z,989.85
2018-03-11T05:36:09.361Z,989.89
2018-03-11T05:37:09.335Z,989.87
2018-03-11T05:39:02.749Z,989.88
2018-03-11T05:40:02.709Z,989.95
2018-03-11T05:41:55.586Z,989.98
2018-03-11T05:42:55.557Z,989.99
2018-03-11T05:44:48.450Z,990.00
2018-03-11T05:45:48.423Z,989.95
2018-03-11T05:47:41.309Z,989.96
2018-03-11T05:48:41.292Z,989.93
2018-03-11T05:50:34.691Z,989.93
2018-03-11T05:51:34.646Z,989.93
2018-03-11T05:53:27.599Z,989.93
2018-03-11T05:54:27.520Z,989.95
2018-03-11T05:56:20.457Z,989.97
2018-03-11T05:57:20.425Z,989.93
2018-03-11T05:59:13.306Z,989.93
2018-03-11T06:00:13.282Z,989.88
2018-03-11T06:02:06.179Z,989.81
2018-03-11T06:03:06.160Z,989.86
2018-03-11T06:04:59.039Z,989.88
2018-03-11T06:05:59.010Z,989.87
2018-03-11T06:07:51.931Z,989.86
2018-03-11T06:08:51.874Z,989.83
2018-03-11T06:10:44.779Z,989.82
2018-03-11T06:11:44.736Z,989.81
2018-03-11T06:13:37.630Z,989.76
2018-03-11T06:14:37.610Z,989.79
2018-03-11T06:16:30.500Z,989.81
2018-03-11T06:17:30.473Z,989.79
2018-03-11T06:19:23.365Z,989.65
2018-03-11T06:20:23.340Z,989.67
2018-03-11T06:22:16.738Z,989.59
2018-03-11T06:23:16.695Z,989.57
2018-03-11T06:25:09.592Z,989.58
2018-03-11T06:26:09.569Z,989.58
2018-03-11T06:28:02.460Z,989.56
2018-03-11T06:29:02.437Z,989.61
2018-03-11T06:30:55.328Z,989.61
2018-03-11T06:31:55.296Z,989.58
2018-03-11T06:33:48.680Z,989.61
2018-03-11T06:34:48.651Z,989.59
2018-03-11T06:36:42.049Z,989.62
2018-03-11T06:37:42.023Z,989.53
2018-03-11T06:39:34.915Z,989.59
2018-03-11T06:40:34.892Z,989.63
2018-03-11T06:42:28.270Z,989.54
2018-03-11T06:43:28.261Z,989.59
2018-03-11T06:45:21.710Z,989.55
2018-03-11T06:46:21.113Z,989.50
2018-03-11T06:48:14.085Z,989.50
2018-03-11T06:49:13.987Z,989.50
2018-03-11T06:51:06.883Z,989.39
2018-03-11T06:52:06.848Z,989.39
2018-03-11T06:53:59.731Z,989.38
2018-03-11T06:54:59.706Z,989.30
2018-03-11T06:56:52.616Z,989.28
2018-03-11T06:57:52.588Z,989.32
2018-03-11T06:59:45.470Z,989.28
2018-03-11T07:00:45.446Z,989.30
2018-03-11T07:02:39.483Z,989.28
2018-03-11T07:03:39.318Z,989.32
2018-03-11T07:05:32.431Z,989.34
2018-03-11T07:06:32.185Z,989.33
2018-03-11T07:08:25.799Z,989.31
2018-03-11T07:09:25.604Z,989.35
2018-03-11T07:11:18.951Z,989.40
2018-03-11T07:12:18.898Z,989.36
2018-03-11T07:14:14.003Z,989.35
2018-03-11T07:15:12.836Z,989.40
2018-03-11T07:17:05.411Z,989.39
2018-03-11T07:18:05.150Z,989.39
2018-03-11T07:19:58.537Z,989.34
2018-03-11T07:20:58.509Z,989.41
2018-03-11T07:22:52.083Z,989.37
2018-03-11T07:23:51.861Z,989.36
2018-03-11T07:25:45.318Z,989.39
2018-03-11T07:26:45.214Z,989.40
2018-03-11T07:28:38.864Z,989.43
2018-03-11T07:29:38.607Z,989.44
2018-03-11T07:31:32.299Z,989.43
2018-03-11T07:32:31.966Z,989.41
2018-03-11T07:34:25.689Z,989.41
2018-03-11T07:35:25.322Z,989.45
2018-03-11T07:37:19.739Z,989.48
2018-03-11T07:38:18.680Z,989.39
2018-03-11T07:40:13.137Z,989.45
2018-03-11T07:41:12.610Z,989.53
2018-03-11T07:43:04.992Z,989.51
2018-03-11T07:44:04.991Z,989.48
2018-03-11T07:45:58.597Z,989.45
2018-03-11T07:46:58.317Z,989.44
2018-03-11T07:48:51.915Z,989.50
2018-03-11T07:49:51.711Z,989.52
2018-03-11T07:51:44.613Z,989.67
2018-03-11T07:52:44.577Z,989.64
2018-03-11T07:54:38.290Z,989.67
2018-03-11T07:55:37.929Z,989.62
2018-03-11T07:57:30.931Z,989.55
2018-03-11T07:58:30.897Z,989.62
2018-03-11T08:00:23.851Z,989.60
2018-03-11T08:01:23.745Z,989.64
2018-03-11T08:03:17.168Z,989.60
2018-03-11T08:04:17.122Z,989.60
2018-03-11T08:06:10.707Z,989.58
2018-03-11T08:07:10.557Z,989.54
2018-03-11T08:09:04.479Z,989.57
2018-03-11T08:10:03.885Z,989.58
2018-03-11T08:11:57.513Z,989.61
2018-03-11T08:12:57.233Z,989.64
2018-03-11T08:14:50.641Z,989.53
2018-03-11T08:15:51.222Z,989.60
2018-03-11T08:17:43.562Z,989.57
2018-03-11T08:18:43.558Z,989.52
2018-03-11T08:20:37.148Z,989.56
2018-03-11T08:21:36.863Z,989.53
2018-03-11T08:23:31.250Z,989.58
2018-03-11T08:24:31.232Z,989.64
2018-03-11T08:26:25.024Z,989.62
2018-03-11T08:27:24.119Z,989.61
2018-03-11T08:29:17.779Z,989.66
2018-03-11T08:30:17.515Z,989.66
2018-03-11T08:32:11.004Z,989.60
2018-03-11T08:33:13.399Z,989.66
2018-03-11T08:35:05.499Z,989.75
2018-03-11T08:36:05.129Z,989.71
2018-03-11T08:37:58.660Z,989.73
2018-03-11T08:38:58.254Z,989.82
2018-03-11T08:40:52.068Z,989.83
2018-03-11T08:41:51.652Z,989.80
2018-03-11T08:43:46.124Z,989.83
2018-03-11T08:44:45.899Z,989.83
2018-03-11T08:46:39.868Z,989.84
2018-03-11T08:47:39.804Z,989.84
2018-03-11T08:49:32.757Z,989.82
2018-03-11T08:50:32.692Z,989.84
2018-03-11T08:52:26.060Z,989.88
2018-03-11T08:53:26.045Z,989.89
2018-03-11T08:55:19.106Z,989.72
2018-03-11T08:56:18.931Z,989.74
2018-03-11T08:58:12.397Z,989.77
2018-03-11T08:59:11.822Z,989.78
2018-03-11T09:01:05.195Z,989.78
2018-03-11T09:02:05.150Z,989.77
2018-03-11T09:03:58.566Z,989.75
2018-03-11T09:04:58.523Z,989.73
2018-03-11T09:06:51.997Z,989.76
2018-03-11T09:07:51.899Z,989.70
2018-03-11T09:09:45.079Z,989.61
2018-03-11T09:10:44.857Z,989.58
2018-03-11T09:12:38.141Z,989.59
2018-03-11T09:13:37.850Z,989.61
2018-03-11T09:15:31.157Z,989.59
2018-03-11T09:16:30.808Z,989.58
2018-03-11T09:18:23.945Z,989.58
2018-03-11T09:19:23.795Z,989.62
2018-03-11T09:21:17.113Z,989.59
2018-03-11T09:22:17.089Z,989.57
2018-03-11T09:24:12.795Z,989.60
2018-03-11T09:25:10.569Z,989.58
2018-03-11T09:27:04.150Z,989.62
2018-03-11T09:28:04.092Z,989.56
2018-03-11T09:29:57.531Z,989.49
2018-03-11T09:30:57.085Z,989.43
2018-03-11T09:32:51.086Z,989.50
2018-03-11T09:33:50.885Z,989.46
2018-03-11T09:35:44.413Z,989.40
2018-03-11T09:37:58.730Z,989.42
2018-03-11T09:38:58.706Z,989.36
2018-03-11T09:40:53.129Z,989.38
2018-03-11T09:41:53.025Z,989.40
2018-03-11T09:43:46.565Z,989.38
2018-03-11T09:44:46.100Z,989.35
2018-03-11T09:46:39.769Z,989.33
2018-03-11T09:47:39.505Z,989.39
2018-03-11T09:49:32.928Z,989.43
2018-03-11T09:50:32.412Z,989.39
2018-03-11T09:52:25.841Z,989.40
2018-03-11T09:53:25.612Z,989.48
2018-03-11T09:55:19.956Z,989.44
2018-03-11T09:56:19.487Z,989.50
2018-03-11T09:58:13.078Z,989.54
2018-03-11T09:59:13.790Z,989.55
2018-03-11T10:01:09.936Z,989.63
2018-03-11T10:02:08.908Z,989.65
2018-03-11T10:04:02.259Z,989.60
2018-03-11T10:05:02.221Z,989.65
2018-03-11T10:06:55.675Z,989.72
2018-03-11T10:07:56.751Z,989.68
2018-03-11T10:09:50.133Z,989.61
2018-03-11T10:10:48.868Z,989.62
2018-03-11T10:12:42.540Z,989.58
2018-03-11T10:13:42.563Z,989.54
2018-03-11T10:15:38.396Z,989.51
2018-03-11T10:16:37.049Z,989.53
2018-03-11T10:18:29.849Z,989.60
2018-03-11T10:19:30.068Z,989.73
2018-03-11T10:21:23.318Z,989.64
2018-03-11T10:22:22.963Z,989.69
2018-03-11T10:24:16.817Z,989.68
2018-03-11T10:25:16.320Z,989.68
2018-03-11T10:27:10.087Z,989.67
2018-03-11T10:28:09.684Z,989.66
2018-03-11T10:30:04.680Z,989.69
2018-03-11T10:31:04.591Z,989.75
2018-03-11T10:32:57.876Z,989.71
2018-03-11T10:33:57.579Z,989.71
2018-03-11T10:35:52.890Z,989.71
2018-03-11T10:36:51.302Z,989.70
2018-03-11T10:38:44.828Z,989.69
2018-03-11T10:39:44.773Z,989.76
2018-03-11T10:41:41.419Z,989.78
2018-03-11T10:42:40.361Z,989.87
2018-03-11T10:44:32.747Z,989.79
2018-03-11T10:45:30.834Z,989.80
2018-03-11T10:47:25.632Z,989.83
2018-03-11T10:48:24.213Z,989.79
2018-03-11T10:50:24.234Z,989.79
2018-03-11T10:52:31.733Z,989.70
2018-03-11T10:54:45.734Z,989.72
2018-03-11T10:55:44.940Z,989.67
2018-03-11T10:58:30.960Z,989.77
2018-03-11T10:59:30.229Z,989.75
2018-03-11T11:01:23.809Z,989.73
2018-03-11T11:02:23.505Z,989.79
2018-03-11T11:04:17.248Z,989.71
2018-03-11T11:05:16.962Z,989.67
2018-03-11T11:07:13.603Z,989.68
2018-03-11T11:08:10.258Z,989.68
2018-03-11T11:10:07.346Z,989.72
2018-03-11T11:11:05.995Z,989.73
2018-03-11T11:13:03.041Z,989.69
2018-03-11T11:13:57.743Z,989.67
2018-03-11T11:15:52.489Z,989.66
2018-03-11T11:16:50.725Z,989.61
2018-03-11T11:18:47.404Z,989.60
2018-03-11T11:19:45.071Z,989.58
2018-03-11T11:21:37.586Z,989.61
2018-03-11T11:22:38.186Z,989.58
2018-03-11T11:24:31.064Z,989.59
2018-03-11T11:25:31.290Z,989.57
2018-03-11T11:27:24.972Z,989.60
2018-03-11T11:28:23.684Z,989.58
2018-03-11T11:30:17.340Z,989.53
2018-03-11T11:31:17.130Z,989.49
2018-03-11T11:33:15.039Z,989.56
2018-03-11T11:35:25.383Z,989.51
2018-03-11T11:36:26.542Z,989.56
2018-03-11T11:38:17.757Z,989.49
2018-03-11T11:39:17.762Z,989.51
2018-03-11T11:41:11.123Z,989.51
2018-03-11T11:42:10.860Z,989.53
2018-03-11T11:44:05.648Z,989.48
2018-03-11T11:45:05.081Z,989.47
2018-03-11T11:46:58.409Z,989.43
2018-03-11T11:47:57.978Z,989.43
2018-03-11T11:49:52.116Z,989.43
2018-03-11T11:50:51.774Z,989.48
2018-03-11T11:52:44.383Z,989.48
2018-03-11T11:53:45.379Z,989.48
2018-03-11T11:55:37.346Z,989.43
2018-03-11T11:56:37.121Z,989.45
2018-03-11T11:58:30.837Z,989.39
2018-03-11T11:59:30.537Z,989.41
2018-03-11T12:01:23.774Z,989.36
2018-03-11T12:04:22.496Z,989.27
2018-03-11T12:06:33.633Z,989.20
2018-03-11T12:07:31.418Z,989.20
2018-03-11T12:09:26.922Z,989.19
2018-03-11T12:10:24.727Z,989.14
2018-03-11T12:12:18.002Z,989.13
2018-03-11T12:13:18.997Z,989.14
2018-03-11T12:15:14.567Z,989.10
2018-03-11T12:17:24.889Z,989.17
2018-03-11T12:19:41.233Z,989.11
2018-03-11T12:20:37.376Z,989.10
2018-03-11T12:22:30.100Z,989.05
2018-03-11T12:23:29.727Z,989.04
2018-03-11T12:25:23.141Z,989.03
2018-03-11T12:26:23.137Z,988.99
2018-03-11T12:28:16.859Z,988.96
2018-03-11T12:29:16.507Z,988.95
2018-03-11T12:31:10.460Z,988.88
2018-03-11T12:32:09.859Z,988.85
2018-03-11T12:34:03.410Z,988.83
2018-03-11T12:35:03.272Z,988.82
2018-03-11T12:36:57.048Z,988.79
2018-03-11T12:37:59.202Z,988.79
2018-03-11T12:39:49.913Z,988.75
2018-03-11T12:40:49.714Z,988.73
2018-03-11T12:42:44.028Z,988.72
2018-03-11T12:43:43.328Z,988.72
2018-03-11T12:45:37.909Z,988.69
2018-03-11T12:46:36.382Z,988.66
2018-03-11T12:48:30.659Z,988.55
2018-03-11T12:49:29.271Z,988.54
2018-03-11T12:51:22.918Z,988.52
2018-03-11T12:52:22.573Z,988.49
2018-03-11T12:54:16.171Z,988.51
2018-03-11T12:55:16.009Z,988.45
2018-03-11T12:57:08.832Z,988.40
2018-03-11T12:58:09.386Z,988.36
2018-03-11T13:00:03.832Z,988.30
2018-03-11T13:02:18.671Z,988.28
2018-03-11T13:03:17.191Z,988.23
2018-03-11T13:05:11.016Z,988.23
2018-03-11T13:06:10.544Z,988.24
2018-03-11T13:08:05.510Z,988.15
2018-03-11T13:09:04.767Z,988.20
2018-03-11T13:10:57.144Z,988.14
2018-03-11T13:11:58.602Z,988.18
2018-03-11T13:13:52.067Z,988.15
2018-03-11T13:14:50.008Z,988.17
2018-03-11T13:16:43.383Z,988.14
2018-03-11T13:17:43.022Z,988.21
2018-03-11T13:19:37.389Z,988.22
2018-03-11T13:21:54.716Z,988.22
2018-03-11T13:22:50.795Z,988.22
2018-03-11T13:24:44.707Z,988.23
2018-03-11T13:25:44.697Z,988.20
2018-03-11T13:27:38.428Z,988.19
2018-03-11T13:28:37.124Z,988.17
2018-03-11T13:30:30.981Z,988.15
2018-03-11T13:31:30.501Z,988.11
2018-03-11T13:33:23.838Z,988.06
2018-03-11T13:34:23.838Z,988.04
2018-03-11T13:36:17.069Z,988.01
2018-03-11T13:37:17.531Z,987.97
2018-03-11T13:39:10.415Z,987.93
2018-03-11T13:40:11.413Z,987.93
2018-03-11T13:42:04.854Z,987.90
2018-03-11T13:43:02.899Z,987.87
2018-03-11T13:45:23.934Z,987.81
2018-03-11T13:46:23.837Z,987.80
2018-03-11T13:48:23.274Z,987.77
2018-03-11T13:49:21.859Z,987.81
2018-03-11T13:51:15.460Z,987.86
2018-03-11T13:52:15.360Z,987.93
2018-03-11T13:54:08.458Z,987.98
2018-03-11T13:55:08.112Z,988.00
2018-03-11T13:57:02.653Z,988.12
2018-03-11T13:58:01.455Z,988.15
2018-03-11T13:59:55.250Z,988.22
2018-03-11T14:00:55.174Z,988.26
2018-03-11T14:02:48.633Z,988.24
2018-03-11T14:03:48.600Z,988.28
2018-03-11T14:05:53.390Z,988.28
2018-03-11T14:06:55.104Z,988.28
2018-03-11T14:08:46.307Z,988.26
2018-03-11T14:09:46.650Z,988.22
2018-03-11T14:11:40.849Z,988.23
2018-03-11T14:12:41.042Z,988.22
2018-03-11T14:14:34.087Z,988.27
2018-03-11T14:15:35.930Z,988.25
2018-03-11T14:17:31.342Z,988.28
2018-03-11T14:18:28.123Z,988.35
2018-03-11T14:20:23.436Z,988.31
2018-03-11T14:21:22.828Z,988.30
2018-03-11T14:23:16.306Z,988.19
2018-03-11T14:24:16.154Z,988.18
2018-03-11T14:26:12.364Z,988.11
2018-03-11T14:27:11.725Z,988.05
2018-03-11T14:29:06.061Z,987.96
2018-03-11T14:30:05.490Z,987.94
2018-03-11T14:31:58.589Z,987.91
2018-03-11T14:32:58.993Z,987.94
2018-03-11T14:34:51.681Z,987.98
2018-03-11T14:35:51.635Z,987.91
2018-03-11T14:37:46.260Z,987.93
2018-03-11T14:38:45.039Z,987.96
2018-03-11T14:40:38.159Z,987.94
2018-03-11T14:41:37.927Z,987.98
2018-03-11T14:43:30.846Z,987.99
2018-03-11T14:44:30.782Z,987.93
2018-03-11T14:46:24.466Z,987.99
2018-03-11T14:47:24.176Z,987.95
2018-03-11T14:49:17.393Z,987.97
2018-03-11T14:50:17.049Z,987.93
2018-03-11T14:52:10.241Z,987.97
2018-03-11T14:53:10.013Z,988.00
2018-03-11T14:55:02.940Z,988.00
2018-03-11T14:56:02.936Z,988.01
2018-03-11T14:58:00.915Z,987.99
2018-03-11T14:59:03.407Z,988.00
2018-03-11T15:00:56.729Z,988.06
2018-03-11T15:01:55.547Z,988.01
2018-03-11T15:03:59.274Z,988.04
2018-03-11T15:04:58.868Z,988.05
2018-03-11T15:06:53.217Z,988.11
2018-03-11T15:07:52.829Z,988.14
2018-03-11T15:09:50.648Z,988.15
2018-03-11T15:10:46.268Z,988.17
2018-03-11T15:12:41.898Z,988.18
2018-03-11T15:13:41.186Z,988.16
2018-03-11T15:15:32.596Z,988.17
2018-03-11T15:16:32.539Z,988.11
2018-03-11T15:18:25.947Z,988.12
2018-03-11T15:19:25.827Z,988.09
2018-03-11T15:21:19.327Z,988.11
2018-03-11T15:22:18.867Z,988.06
2018-03-11T15:24:12.611Z,987.98
2018-03-11T15:25:12.557Z,987.95
2018-03-11T15:27:05.548Z,988.03
2018-03-11T15:28:05.565Z,988.07
2018-03-11T15:29:58.752Z,988.12
2018-03-11T15:30:58.456Z,988.08
2018-03-11T15:32:54.523Z,988.01
2018-03-11T15:33:52.438Z,988.02
2018-03-11T15:35:48.246Z,988.03
2018-03-11T15:36:48.054Z,988.04
2018-03-11T15:38:46.364Z,988.04
2018-03-11T15:39:43.487Z,987.97
2018-03-11T15:41:35.440Z,987.88
2018-03-11T15:42:35.437Z,987.92
2018-03-11T15:44:29.909Z,987.97
2018-03-11T15:45:32.925Z,988.02
2018-03-11T15:47:22.889Z,988.01
2018-03-11T15:48:24.947Z,988.00
2018-03-11T15:50:19.371Z,988.00
2018-03-11T15:51:15.982Z,987.99
2018-03-11T15:53:09.446Z,987.95
2018-03-11T15:54:09.105Z,987.96
2018-03-11T15:56:03.879Z,987.88
2018-03-11T15:57:03.793Z,987.92
2018-03-11T15:58:59.088Z,987.90
2018-03-11T15:59:59.589Z,987.89
2018-03-11T16:01:52.783Z,987.86
2018-03-11T16:02:50.552Z,987.83
2018-03-11T16:04:44.183Z,987.86
2018-03-11T16:05:43.690Z,987.88
2018-03-11T16:07:37.459Z,987.97
2018-03-11T16:08:37.412Z,987.93
2018-03-11T16:10:33.576Z,987.95
2018-03-11T16:11:30.863Z,987.95
2018-03-11T16:14:15.212Z,987.99
2018-03-11T16:15:14.816Z,987.97
2018-03-11T16:17:11.031Z,988.07
2018-03-11T16:18:08.554Z,988.05
2018-03-11T16:20:04.391Z,988.07
2018-03-11T16:21:01.479Z,988.04
2018-03-11T16:22:55.814Z,988.03
2018-03-11T16:23:55.802Z,988.02
2018-03-11T16:25:51.675Z,988.02
2018-03-11T16:26:49.726Z,988.06
2018-03-11T16:28:45.659Z,988.05
2018-03-11T16:29:42.781Z,988.06
2018-03-11T16:32:27.299Z,988.03
2018-03-11T16:33:30.188Z,988.03
2018-03-11T16:35:20.950Z,988.01
2018-03-11T16:36:21.139Z,988.00
2018-03-11T16:38:14.434Z,987.99
2018-03-11T16:39:14.027Z,988.02
2018-03-11T16:41:07.773Z,988.00
2018-03-11T16:42:07.755Z,988.00
2018-03-11T16:44:00.285Z,987.97
2018-03-11T16:45:00.228Z,987.90
2018-03-11T16:46:53.580Z,987.89
2018-03-11T16:47:53.205Z,987.85
2018-03-11T16:49:47.501Z,987.92
2018-03-11T16:50:46.916Z,987.93
2018-03-11T16:52:40.928Z,987.96
2018-03-11T16:53:40.578Z,987.90
2018-03-11T16:55:34.132Z,987.88
2018-03-11T16:56:33.649Z,987.90
2018-03-11T16:58:27.376Z,987.86
2018-03-11T16:59:27.429Z,987.91
2018-03-11T17:01:22.016Z,987.88
2018-03-11T17:02:20.375Z,987.93
2018-03-11T17:04:14.201Z,987.88
2018-03-11T17:05:13.770Z,987.90
2018-03-11T17:07:08.579Z,987.88
2018-03-11T17:08:07.076Z,987.92
2018-03-11T17:10:00.041Z,987.89
2018-03-11T17:10:59.997Z,987.93
2018-03-11T17:12:54.446Z,987.94
2018-03-11T17:13:54.685Z,987.95
2018-03-11T17:15:48.163Z,987.96
2018-03-11T17:16:47.743Z,987.98
2018-03-11T17:18:40.748Z,987.94
2018-03-11T17:19:40.789Z,987.92
2018-03-11T17:21:34.422Z,987.93
2018-03-11T17:22:33.983Z,987.87
2018-03-11T17:24:27.597Z,987.91
2018-03-11T17:25:27.386Z,987.88
2018-03-11T17:27:20.801Z,987.91
2018-03-11T17:28:20.730Z,987.91
2018-03-11T17:30:15.189Z,987.91
2018-03-11T17:31:15.104Z,987.91
2018-03-11T17:33:08.592Z,987.92
2018-03-11T17:34:08.470Z,987.88
2018-03-11T17:36:03.400Z,987.91
2018-03-11T17:37:01.846Z,987.89
2018-03-11T17:38:55.630Z,987.86
2018-03-11T17:39:55.588Z,987.89
2018-03-11T17:41:49.025Z,987.84
2018-03-11T17:42:48.598Z,987.93
2018-03-11T17:44:42.451Z,987.90
2018-03-11T17:45:42.421Z,987.89
2018-03-11T17:47:35.888Z,987.86
2018-03-11T17:48:35.839Z,987.87
2018-03-11T17:50:29.826Z,987.85
2018-03-11T17:51:29.374Z,987.82
2018-03-11T17:53:23.122Z,987.85
2018-03-11T17:54:22.729Z,987.83
2018-03-11T17:56:16.548Z,987.82
2018-03-11T17:57:16.090Z,987.90
2018-03-11T17:59:13.081Z,987.90
2018-03-11T18:00:12.588Z,987.91
2018-03-11T18:02:04.791Z,988.02
2018-03-11T18:03:05.123Z,988.01
2018-03-11T18:05:02.733Z,988.03
2018-03-11T18:05:57.752Z,988.05
2018-03-11T18:09:25.316Z,988.11
2018-03-11T18:10:26.220Z,988.10
2018-03-11T18:12:18.967Z,988.13
2018-03-11T18:13:18.198Z,988.07
2018-03-11T18:15:13.883Z,988.09